SAA816 FACT-FMCZ
Flight info
| Callsign | SAA816 |
|---|---|
| Flight time | 4h 41m |
| Altitude | 31000 |
| Route | TETAN1B TETAN UZ39 BLV UZ36 TEVAP UG467 VL UW19 VNP UT547 VNC UT548 SOLAL UN305 HAI HAY1D |
| Aircraft | B738/M-SDGIJ1LRWY/SB1 |
Departure
| Time | 2026-04-15 16:05 |
|---|---|
| Airport | Cape Town International Airport (FACT) |
Arrival
| Time | 2026-04-15 20:47 |
|---|---|
| Airport | Dzaoudzi Pamandzi International Airport (FMCZ) |
| Time | Latitude | Longitude | Altitude | Speed | Heading |
|---|---|---|---|---|---|
| 2026-04-15 15:30 | -33.96989 | 18.59827 | 159 ft | 0 kts | 255° |
| 2026-04-15 15:58 | -33.96988 | 18.59834 | 159 ft | 2 kts | 253° |
| 2026-04-15 15:58 | -33.96984 | 18.59852 | 159 ft | 2 kts | 255° |
| 2026-04-15 15:58 | -33.96980 | 18.59869 | 159 ft | 2 kts | 254° |
| 2026-04-15 15:59 | -33.96976 | 18.59887 | 159 ft | 2 kts | 254° |
| 2026-04-15 15:59 | -33.96975 | 18.59905 | 159 ft | 2 kts | 285° |
| 2026-04-15 15:59 | -33.96981 | 18.59921 | 159 ft | 2 kts | 312° |
| 2026-04-15 15:59 | -33.96993 | 18.59931 | 159 ft | 1 kts | 340° |
| 2026-04-15 16:00 | -33.96999 | 18.59933 | 159 ft | 1 kts | 348° |
| 2026-04-15 16:00 | -33.97002 | 18.59934 | 159 ft | 0 kts | 346° |
| 2026-04-15 16:01 | -33.97001 | 18.59933 | 159 ft | 1 kts | 346° |
| 2026-04-15 16:02 | -33.96954 | 18.59920 | 160 ft | 8 kts | 346° |
| 2026-04-15 16:02 | -33.96877 | 18.59897 | 161 ft | 17 kts | 346° |
| 2026-04-15 16:02 | -33.96744 | 18.59852 | 160 ft | 22 kts | 340° |
| 2026-04-15 16:02 | -33.96606 | 18.59804 | 158 ft | 19 kts | 345° |
| 2026-04-15 16:03 | -33.96477 | 18.59765 | 158 ft | 18 kts | 347° |
| 2026-04-15 16:03 | -33.96354 | 18.59746 | 156 ft | 17 kts | 354° |
| 2026-04-15 16:03 | -33.96236 | 18.59736 | 156 ft | 15 kts | 17° |
| 2026-04-15 16:03 | -33.96157 | 18.59812 | 156 ft | 13 kts | 46° |
| 2026-04-15 16:04 | -33.96116 | 18.59862 | 157 ft | 7 kts | 44° |
| 2026-04-15 16:04 | -33.96050 | 18.59942 | 158 ft | 19 kts | 50° |
| 2026-04-15 16:04 | -33.96098 | 18.60056 | 158 ft | 18 kts | 162° |
| 2026-04-15 16:04 | -33.96244 | 18.60096 | 158 ft | 36 kts | 165° |
| 2026-04-15 16:05 | -33.96722 | 18.60249 | 157 ft | 104 kts | 166° |
| 2026-04-15 16:05 | -33.97639 | 18.60532 | 154 ft | 162 kts | 165° |
| 2026-04-15 16:05 | -33.98814 | 18.60950 | 429 ft | 186 kts | 161° |
| 2026-04-15 16:05 | -34.00063 | 18.61435 | 832 ft | 200 kts | 163° |
| 2026-04-15 16:06 | -34.01496 | 18.61980 | 977 ft | 230 kts | 160° |
| 2026-04-15 16:06 | -34.03087 | 18.62629 | 1286 ft | 252 kts | 162° |
| 2026-04-15 16:06 | -34.04810 | 18.63273 | 2068 ft | 262 kts | 162° |
| 2026-04-15 16:06 | -34.06435 | 18.63904 | 2961 ft | 258 kts | 161° |
| 2026-04-15 16:07 | -34.08100 | 18.64492 | 3863 ft | 252 kts | 165° |
| 2026-04-15 16:07 | -34.09880 | 18.65037 | 4238 ft | 270 kts | 165° |
| 2026-04-15 16:07 | -34.12823 | 18.67572 | 5469 ft | 277 kts | 112° |
| 2026-04-15 16:08 | -34.13240 | 18.69807 | 6108 ft | 278 kts | 86° |
| 2026-04-15 16:08 | -34.12891 | 18.72096 | 6734 ft | 278 kts | 66° |
| 2026-04-15 16:08 | -34.12001 | 18.74169 | 7328 ft | 281 kts | 52° |
| 2026-04-15 16:08 | -34.10798 | 18.76047 | 7901 ft | 287 kts | 47° |
| 2026-04-15 16:09 | -34.09493 | 18.77895 | 8505 ft | 291 kts | 46° |
| 2026-04-15 16:09 | -34.08171 | 18.79769 | 9075 ft | 297 kts | 46° |
| 2026-04-15 16:09 | -34.06837 | 18.81702 | 9637 ft | 303 kts | 47° |
| 2026-04-15 16:09 | -34.05486 | 18.83696 | 10253 ft | 307 kts | 47° |
| 2026-04-15 16:10 | -34.04130 | 18.85714 | 10658 ft | 319 kts | 47° |
| 2026-04-15 16:10 | -34.02707 | 18.87830 | 10985 ft | 333 kts | 47° |
| 2026-04-15 16:10 | -34.01214 | 18.90049 | 11289 ft | 347 kts | 47° |
| 2026-04-15 16:10 | -33.99646 | 18.92376 | 11590 ft | 362 kts | 47° |
| 2026-04-15 16:11 | -33.98049 | 18.94746 | 11827 ft | 377 kts | 47° |
| 2026-04-15 16:11 | -33.96337 | 18.97284 | 12072 ft | 392 kts | 47° |
| 2026-04-15 16:11 | -33.94598 | 18.99860 | 12280 ft | 407 kts | 47° |
| 2026-04-15 16:11 | -33.92799 | 19.02529 | 12892 ft | 408 kts | 47° |
| 2026-04-15 16:12 | -33.91013 | 19.05186 | 13586 ft | 408 kts | 47° |
| 2026-04-15 16:12 | -33.89232 | 19.07829 | 14184 ft | 411 kts | 47° |
| 2026-04-15 16:12 | -33.87407 | 19.10531 | 14751 ft | 415 kts | 47° |
| 2026-04-15 16:12 | -33.85587 | 19.13223 | 15298 ft | 418 kts | 47° |
| 2026-04-15 16:13 | -33.83747 | 19.15941 | 15874 ft | 421 kts | 47° |
| 2026-04-15 16:13 | -33.81887 | 19.18687 | 16425 ft | 424 kts | 47° |
| 2026-04-15 16:13 | -33.80019 | 19.21442 | 16957 ft | 427 kts | 47° |
| 2026-04-15 16:13 | -33.78136 | 19.24216 | 17454 ft | 431 kts | 47° |
| 2026-04-15 16:14 | -33.76245 | 19.27002 | 17997 ft | 433 kts | 47° |
| 2026-04-15 16:14 | -33.74313 | 19.29842 | 18479 ft | 437 kts | 47° |
| 2026-04-15 16:14 | -33.72409 | 19.32641 | 18989 ft | 439 kts | 47° |
| 2026-04-15 16:14 | -33.70536 | 19.35393 | 19461 ft | 442 kts | 47° |
| 2026-04-15 16:15 | -33.68650 | 19.38190 | 19901 ft | 446 kts | 49° |
| 2026-04-15 16:15 | -33.66829 | 19.41223 | 20406 ft | 451 kts | 53° |
| 2026-04-15 16:15 | -33.65193 | 19.44437 | 20878 ft | 455 kts | 57° |
| 2026-04-15 16:15 | -33.63675 | 19.47800 | 21371 ft | 458 kts | 59° |
| 2026-04-15 16:16 | -33.62235 | 19.51221 | 21835 ft | 461 kts | 61° |
| 2026-04-15 16:16 | -33.60825 | 19.54694 | 22269 ft | 464 kts | 61° |
| 2026-04-15 16:16 | -33.59421 | 19.58205 | 22641 ft | 469 kts | 61° |
| 2026-04-15 16:16 | -33.58022 | 19.61706 | 23089 ft | 471 kts | 62° |
| 2026-04-15 16:17 | -33.56600 | 19.65257 | 23381 ft | 477 kts | 61° |
| 2026-04-15 16:17 | -33.55123 | 19.68924 | 23483 ft | 487 kts | 60° |
| 2026-04-15 16:17 | -33.53633 | 19.72602 | 23822 ft | 491 kts | 60° |
| 2026-04-15 16:17 | -33.52139 | 19.76280 | 24456 ft | 488 kts | 60° |
| 2026-04-15 16:18 | -33.50664 | 19.79900 | 24991 ft | 487 kts | 60° |
| 2026-04-15 16:18 | -33.49171 | 19.83553 | 25433 ft | 488 kts | 60° |
| 2026-04-15 16:18 | -33.47662 | 19.87230 | 25595 ft | 496 kts | 60° |
| 2026-04-15 16:18 | -33.46130 | 19.90952 | 25884 ft | 500 kts | 60° |
| 2026-04-15 16:19 | -33.44596 | 19.94675 | 26336 ft | 500 kts | 60° |
| 2026-04-15 16:19 | -33.43053 | 19.98418 | 26821 ft | 499 kts | 59° |
| 2026-04-15 16:19 | -33.41520 | 20.02138 | 27272 ft | 499 kts | 59° |
| 2026-04-15 16:19 | -33.39975 | 20.05883 | 27771 ft | 497 kts | 59° |
| 2026-04-15 16:20 | -33.38441 | 20.09593 | 28185 ft | 497 kts | 59° |
| 2026-04-15 16:20 | -33.36911 | 20.13290 | 28592 ft | 497 kts | 59° |
| 2026-04-15 16:20 | -33.35379 | 20.16987 | 28982 ft | 497 kts | 59° |
| 2026-04-15 16:20 | -33.33828 | 20.20723 | 29440 ft | 495 kts | 59° |
| 2026-04-15 16:21 | -33.32288 | 20.24428 | 29824 ft | 495 kts | 58° |
| 2026-04-15 16:21 | -33.30781 | 20.28054 | 30244 ft | 493 kts | 58° |
| 2026-04-15 16:21 | -33.29230 | 20.31778 | 30596 ft | 493 kts | 58° |
| 2026-04-15 16:21 | -33.27668 | 20.35402 | 30921 ft | 492 kts | 56° |
| 2026-04-15 16:22 | -33.25952 | 20.38930 | 31087 ft | 490 kts | 51° |
| 2026-04-15 16:22 | -33.21920 | 20.45378 | 31089 ft | 480 kts | 44° |
| 2026-04-15 16:23 | -33.17563 | 20.51445 | 31089 ft | 479 kts | 42° |
| 2026-04-15 16:23 | -33.13426 | 20.57106 | 31092 ft | 479 kts | 43° |
| 2026-04-15 16:24 | -33.09100 | 20.63099 | 31082 ft | 481 kts | 43° |
| 2026-04-15 16:24 | -33.04807 | 20.69123 | 31079 ft | 478 kts | 42° |
| 2026-04-15 16:25 | -33.00490 | 20.75208 | 31073 ft | 477 kts | 43° |
| 2026-04-15 16:25 | -32.96196 | 20.81268 | 31078 ft | 477 kts | 42° |
| 2026-04-15 16:26 | -32.91934 | 20.87278 | 31081 ft | 478 kts | 42° |
| 2026-04-15 16:26 | -32.87611 | 20.93360 | 31083 ft | 477 kts | 43° |
| 2026-04-15 16:27 | -32.83312 | 20.99403 | 31080 ft | 477 kts | 43° |
| 2026-04-15 16:27 | -32.79028 | 21.05409 | 31092 ft | 478 kts | 43° |
| 2026-04-15 16:28 | -32.74733 | 21.11426 | 31090 ft | 477 kts | 43° |
| 2026-04-15 16:28 | -32.70422 | 21.17453 | 31091 ft | 477 kts | 43° |
| 2026-04-15 16:29 | -32.66118 | 21.23463 | 31096 ft | 477 kts | 43° |
| 2026-04-15 16:29 | -32.61794 | 21.29485 | 31100 ft | 477 kts | 43° |
| 2026-04-15 16:30 | -32.57495 | 21.35468 | 31101 ft | 478 kts | 43° |
| 2026-04-15 16:30 | -32.53143 | 21.41510 | 31100 ft | 479 kts | 43° |
| 2026-04-15 16:31 | -32.48821 | 21.47507 | 31102 ft | 478 kts | 43° |
| 2026-04-15 16:31 | -32.44506 | 21.53481 | 31108 ft | 477 kts | 43° |
| 2026-04-15 16:32 | -32.40163 | 21.59482 | 31115 ft | 479 kts | 43° |
| 2026-04-15 16:32 | -32.35860 | 21.65422 | 31117 ft | 478 kts | 42° |
| 2026-04-15 16:33 | -32.31512 | 21.71412 | 31114 ft | 477 kts | 42° |
| 2026-04-15 16:33 | -32.27182 | 21.77368 | 31117 ft | 478 kts | 42° |
| 2026-04-15 16:34 | -32.22832 | 21.83345 | 31130 ft | 477 kts | 42° |
| 2026-04-15 16:34 | -32.18486 | 21.89303 | 31130 ft | 477 kts | 43° |
| 2026-04-15 16:35 | -32.14144 | 21.95245 | 31140 ft | 479 kts | 43° |
| 2026-04-15 16:35 | -32.09789 | 22.01196 | 31147 ft | 478 kts | 43° |
| 2026-04-15 16:36 | -32.05446 | 22.07123 | 31150 ft | 478 kts | 43° |
| 2026-04-15 16:36 | -32.01107 | 22.13033 | 31163 ft | 479 kts | 43° |
| 2026-04-15 16:37 | -31.96766 | 22.18941 | 31161 ft | 477 kts | 43° |
| 2026-04-15 16:37 | -31.92414 | 22.24850 | 31164 ft | 478 kts | 43° |
| 2026-04-15 16:38 | -31.88044 | 22.30776 | 31164 ft | 479 kts | 43° |
| 2026-04-15 16:38 | -31.83678 | 22.36692 | 31171 ft | 476 kts | 43° |
| 2026-04-15 16:39 | -31.79328 | 22.42571 | 31172 ft | 478 kts | 43° |
| 2026-04-15 16:39 | -31.74967 | 22.48457 | 31176 ft | 477 kts | 43° |
| 2026-04-15 16:40 | -31.70619 | 22.54316 | 31171 ft | 476 kts | 43° |
| 2026-04-15 16:40 | -31.66248 | 22.60198 | 31172 ft | 476 kts | 43° |
| 2026-04-15 16:41 | -31.61903 | 22.66035 | 31164 ft | 475 kts | 42° |
| 2026-04-15 16:41 | -31.57541 | 22.71886 | 31161 ft | 474 kts | 42° |
| 2026-04-15 16:42 | -31.53194 | 22.77703 | 31160 ft | 475 kts | 42° |
| 2026-04-15 16:42 | -31.48838 | 22.83528 | 31166 ft | 475 kts | 42° |
| 2026-04-15 16:43 | -31.44490 | 22.89332 | 31168 ft | 474 kts | 42° |
| 2026-04-15 16:43 | -31.40117 | 22.95162 | 31166 ft | 474 kts | 42° |
| 2026-04-15 16:44 | -31.35777 | 23.00939 | 31163 ft | 474 kts | 42° |
| 2026-04-15 16:44 | -31.31410 | 23.06741 | 31165 ft | 473 kts | 42° |
| 2026-04-15 16:45 | -31.27076 | 23.12491 | 31159 ft | 474 kts | 42° |
| 2026-04-15 16:45 | -31.22715 | 23.18269 | 31151 ft | 473 kts | 42° |
| 2026-04-15 16:46 | -31.18359 | 23.24031 | 31149 ft | 473 kts | 42° |
| 2026-04-15 16:46 | -31.13977 | 23.29879 | 31148 ft | 474 kts | 43° |
| 2026-04-15 16:47 | -31.09724 | 23.35735 | 31152 ft | 475 kts | 44° |
| 2026-04-15 16:47 | -31.05449 | 23.41663 | 31158 ft | 472 kts | 44° |
| 2026-04-15 16:48 | -31.01209 | 23.47522 | 31160 ft | 474 kts | 44° |
| 2026-04-15 16:48 | -30.96938 | 23.53398 | 31164 ft | 473 kts | 43° |
| 2026-04-15 16:49 | -30.92677 | 23.59239 | 31163 ft | 473 kts | 44° |
| 2026-04-15 16:49 | -30.88411 | 23.65074 | 31162 ft | 473 kts | 43° |
| 2026-04-15 16:50 | -30.84205 | 23.70818 | 31166 ft | 472 kts | 43° |
| 2026-04-15 16:50 | -30.79957 | 23.76610 | 31162 ft | 472 kts | 43° |
| 2026-04-15 16:51 | -30.75682 | 23.82428 | 31166 ft | 471 kts | 43° |
| 2026-04-15 16:51 | -30.71420 | 23.88221 | 31164 ft | 471 kts | 43° |
| 2026-04-15 16:52 | -30.67169 | 23.93991 | 31165 ft | 470 kts | 43° |
| 2026-04-15 16:52 | -30.62911 | 23.99759 | 31163 ft | 472 kts | 43° |
| 2026-04-15 16:53 | -30.58625 | 24.05562 | 31169 ft | 472 kts | 44° |
| 2026-04-15 16:53 | -30.54350 | 24.11337 | 31170 ft | 470 kts | 44° |
| 2026-04-15 16:54 | -30.50096 | 24.17077 | 31180 ft | 470 kts | 44° |
| 2026-04-15 16:54 | -30.45901 | 24.22725 | 31188 ft | 472 kts | 44° |
| 2026-04-15 16:55 | -30.41616 | 24.28488 | 31189 ft | 471 kts | 44° |
| 2026-04-15 16:55 | -30.37335 | 24.34238 | 31181 ft | 471 kts | 44° |
| 2026-04-15 16:56 | -30.33049 | 24.39988 | 31180 ft | 470 kts | 44° |
| 2026-04-15 16:56 | -30.28758 | 24.45737 | 31176 ft | 470 kts | 44° |
| 2026-04-15 16:57 | -30.24503 | 24.51427 | 31177 ft | 470 kts | 44° |
| 2026-04-15 16:57 | -30.20216 | 24.57150 | 31167 ft | 470 kts | 44° |
| 2026-04-15 16:58 | -30.15930 | 24.62864 | 31165 ft | 470 kts | 44° |
| 2026-04-15 16:58 | -30.11641 | 24.68575 | 31162 ft | 471 kts | 44° |
| 2026-04-15 16:59 | -30.07345 | 24.74285 | 31162 ft | 470 kts | 44° |
| 2026-04-15 16:59 | -30.03054 | 24.79986 | 31173 ft | 469 kts | 44° |
| 2026-04-15 17:00 | -29.98771 | 24.85664 | 31186 ft | 469 kts | 44° |
| 2026-04-15 17:00 | -29.94466 | 24.91361 | 31191 ft | 470 kts | 44° |
| 2026-04-15 17:01 | -29.90171 | 24.97037 | 31188 ft | 468 kts | 44° |
| 2026-04-15 17:01 | -29.85899 | 25.02672 | 31207 ft | 469 kts | 44° |
| 2026-04-15 17:02 | -29.81717 | 25.08181 | 31202 ft | 467 kts | 44° |
| 2026-04-15 17:02 | -29.77424 | 25.13834 | 31204 ft | 467 kts | 44° |
| 2026-04-15 17:03 | -29.73247 | 25.19326 | 31199 ft | 467 kts | 45° |
| 2026-04-15 17:03 | -29.69260 | 25.25300 | 31206 ft | 472 kts | 52° |
| 2026-04-15 17:04 | -29.65690 | 25.31625 | 31208 ft | 472 kts | 53° |
| 2026-04-15 17:04 | -29.62209 | 25.38014 | 31204 ft | 471 kts | 54° |
| 2026-04-15 17:05 | -29.58726 | 25.44358 | 31205 ft | 470 kts | 53° |
| 2026-04-15 17:05 | -29.55184 | 25.50723 | 31200 ft | 469 kts | 53° |
| 2026-04-15 17:06 | -29.51658 | 25.57010 | 31199 ft | 469 kts | 53° |
| 2026-04-15 17:06 | -29.48119 | 25.63286 | 31208 ft | 471 kts | 53° |
| 2026-04-15 17:07 | -29.44558 | 25.69583 | 31205 ft | 468 kts | 53° |
| 2026-04-15 17:07 | -29.40998 | 25.75865 | 31208 ft | 470 kts | 52° |
| 2026-04-15 17:08 | -29.37439 | 25.82132 | 31218 ft | 468 kts | 52° |
| 2026-04-15 17:08 | -29.33869 | 25.88405 | 31218 ft | 469 kts | 53° |
| 2026-04-15 17:09 | -29.30343 | 25.94591 | 31223 ft | 469 kts | 53° |
| 2026-04-15 17:09 | -29.26751 | 26.00884 | 31230 ft | 468 kts | 53° |
| 2026-04-15 17:10 | -29.23243 | 26.07019 | 31230 ft | 469 kts | 52° |
| 2026-04-15 17:10 | -29.19610 | 26.13369 | 31228 ft | 467 kts | 52° |
| 2026-04-15 17:11 | -29.16166 | 26.19372 | 31231 ft | 467 kts | 52° |
| 2026-04-15 17:11 | -29.12549 | 26.25669 | 31231 ft | 467 kts | 52° |
| 2026-04-15 17:12 | -29.07525 | 26.35110 | 31227 ft | 471 kts | 58° |
| 2026-04-15 17:12 | -29.04542 | 26.41805 | 31234 ft | 471 kts | 59° |
| 2026-04-15 17:13 | -29.01722 | 26.48289 | 31233 ft | 470 kts | 59° |
| 2026-04-15 17:13 | -28.98790 | 26.54950 | 31239 ft | 471 kts | 59° |
| 2026-04-15 17:14 | -28.95827 | 26.61601 | 31249 ft | 469 kts | 58° |
| 2026-04-15 17:14 | -28.92871 | 26.68180 | 31257 ft | 466 kts | 57° |
| 2026-04-15 17:15 | -28.89903 | 26.74753 | 31261 ft | 466 kts | 57° |
| 2026-04-15 17:15 | -28.86937 | 26.81337 | 31260 ft | 466 kts | 59° |
| 2026-04-15 17:16 | -28.84302 | 26.88178 | 31260 ft | 471 kts | 63° |
| 2026-04-15 17:16 | -28.81898 | 26.95124 | 31262 ft | 470 kts | 63° |
| 2026-04-15 17:17 | -28.79503 | 27.02053 | 31262 ft | 468 kts | 62° |
| 2026-04-15 17:17 | -28.76818 | 27.08757 | 31262 ft | 466 kts | 59° |
| 2026-04-15 17:18 | -28.73930 | 27.15369 | 31264 ft | 467 kts | 58° |
| 2026-04-15 17:18 | -28.71017 | 27.21982 | 31266 ft | 466 kts | 58° |
| 2026-04-15 17:19 | -28.68134 | 27.28573 | 31269 ft | 466 kts | 59° |
| 2026-04-15 17:19 | -28.65255 | 27.35196 | 31272 ft | 466 kts | 59° |
| 2026-04-15 17:20 | -28.62402 | 27.41777 | 31268 ft | 465 kts | 59° |
| 2026-04-15 17:20 | -28.59544 | 27.48379 | 31280 ft | 465 kts | 59° |
| 2026-04-15 17:21 | -28.56678 | 27.54989 | 31281 ft | 466 kts | 59° |
| 2026-04-15 17:21 | -28.53806 | 27.61596 | 31284 ft | 465 kts | 59° |
| 2026-04-15 17:22 | -28.50923 | 27.68221 | 31294 ft | 467 kts | 58° |
| 2026-04-15 17:22 | -28.48014 | 27.74900 | 31304 ft | 471 kts | 58° |
| 2026-04-15 17:23 | -28.45154 | 27.81456 | 31308 ft | 470 kts | 58° |
| 2026-04-15 17:23 | -28.42272 | 27.88060 | 31309 ft | 468 kts | 58° |
| 2026-04-15 17:24 | -28.39361 | 27.94702 | 31312 ft | 469 kts | 59° |
| 2026-04-15 17:24 | -28.36455 | 28.01332 | 31316 ft | 470 kts | 58° |
| 2026-04-15 17:25 | -28.33583 | 28.07881 | 31317 ft | 469 kts | 58° |
| 2026-04-15 17:25 | -28.30688 | 28.14483 | 31318 ft | 468 kts | 59° |
| 2026-04-15 17:26 | -28.27767 | 28.21123 | 31318 ft | 470 kts | 59° |
| 2026-04-15 17:26 | -28.24851 | 28.27728 | 31325 ft | 468 kts | 59° |
| 2026-04-15 17:27 | -28.21926 | 28.34343 | 31326 ft | 470 kts | 59° |
| 2026-04-15 17:27 | -28.19000 | 28.40948 | 31336 ft | 470 kts | 59° |
| 2026-04-15 17:28 | -28.16062 | 28.47567 | 31341 ft | 469 kts | 59° |
| 2026-04-15 17:28 | -28.13112 | 28.54192 | 31332 ft | 470 kts | 59° |
| 2026-04-15 17:29 | -28.10189 | 28.60757 | 31345 ft | 470 kts | 59° |
| 2026-04-15 17:29 | -28.07242 | 28.67371 | 31338 ft | 468 kts | 59° |
| 2026-04-15 17:30 | -28.04343 | 28.73864 | 31332 ft | 470 kts | 59° |
| 2026-04-15 17:30 | -28.01406 | 28.80428 | 31332 ft | 468 kts | 59° |
| 2026-04-15 17:31 | -27.98361 | 28.86917 | 31334 ft | 466 kts | 54° |
| 2026-04-15 17:31 | -27.94196 | 28.92459 | 31339 ft | 455 kts | 38° |
| 2026-04-15 17:32 | -27.89247 | 28.96960 | 31338 ft | 455 kts | 33° |
| 2026-04-15 17:32 | -27.84179 | 29.01249 | 31338 ft | 454 kts | 33° |
| 2026-04-15 17:33 | -27.79118 | 29.05551 | 31342 ft | 455 kts | 33° |
| 2026-04-15 17:33 | -27.74039 | 29.09926 | 31345 ft | 455 kts | 34° |
| 2026-04-15 17:34 | -27.69067 | 29.14255 | 31344 ft | 454 kts | 34° |
| 2026-04-15 17:34 | -27.64046 | 29.18641 | 31344 ft | 454 kts | 34° |
| 2026-04-15 17:35 | -27.59026 | 29.23025 | 31343 ft | 456 kts | 35° |
| 2026-04-15 17:35 | -27.54002 | 29.27401 | 31346 ft | 455 kts | 34° |
| 2026-04-15 17:36 | -27.49071 | 29.31696 | 31335 ft | 453 kts | 34° |
| 2026-04-15 17:36 | -27.44067 | 29.36055 | 31332 ft | 454 kts | 34° |
| 2026-04-15 17:37 | -27.39044 | 29.40424 | 31331 ft | 455 kts | 34° |
| 2026-04-15 17:37 | -27.34096 | 29.44721 | 31329 ft | 454 kts | 34° |
| 2026-04-15 17:38 | -27.29100 | 29.49053 | 31326 ft | 454 kts | 35° |
| 2026-04-15 17:38 | -27.24055 | 29.53422 | 31324 ft | 455 kts | 35° |
| 2026-04-15 17:39 | -27.19053 | 29.57759 | 31329 ft | 454 kts | 35° |
| 2026-04-15 17:39 | -27.14037 | 29.62101 | 31324 ft | 454 kts | 35° |
| 2026-04-15 17:40 | -27.09027 | 29.66430 | 31330 ft | 454 kts | 35° |
| 2026-04-15 17:40 | -27.04003 | 29.70760 | 31328 ft | 454 kts | 34° |
| 2026-04-15 17:41 | -26.98996 | 29.75070 | 31331 ft | 453 kts | 35° |
| 2026-04-15 17:41 | -26.93956 | 29.79405 | 31332 ft | 453 kts | 35° |
| 2026-04-15 17:42 | -26.88943 | 29.83716 | 31333 ft | 453 kts | 35° |
| 2026-04-15 17:42 | -26.83929 | 29.88020 | 31334 ft | 452 kts | 35° |
| 2026-04-15 17:43 | -26.78902 | 29.92330 | 31330 ft | 454 kts | 35° |
| 2026-04-15 17:43 | -26.73852 | 29.96657 | 31330 ft | 454 kts | 35° |
| 2026-04-15 17:44 | -26.68856 | 30.00934 | 31329 ft | 453 kts | 36° |
| 2026-04-15 17:44 | -26.63818 | 30.05239 | 31332 ft | 453 kts | 35° |
| 2026-04-15 17:45 | -26.58857 | 30.09470 | 31326 ft | 453 kts | 35° |
| 2026-04-15 17:45 | -26.53866 | 30.13728 | 31318 ft | 453 kts | 35° |
| 2026-04-15 17:46 | -26.48819 | 30.18022 | 31323 ft | 454 kts | 35° |
| 2026-04-15 17:46 | -26.43789 | 30.22301 | 31325 ft | 455 kts | 36° |
| 2026-04-15 17:47 | -26.38709 | 30.26619 | 31323 ft | 454 kts | 35° |
| 2026-04-15 17:47 | -26.33671 | 30.30897 | 31317 ft | 455 kts | 36° |
| 2026-04-15 17:48 | -26.28656 | 30.35157 | 31320 ft | 454 kts | 36° |
| 2026-04-15 17:48 | -26.23604 | 30.39438 | 31324 ft | 454 kts | 36° |
| 2026-04-15 17:49 | -26.18560 | 30.43701 | 31316 ft | 454 kts | 36° |
| 2026-04-15 17:49 | -26.13525 | 30.47951 | 31299 ft | 455 kts | 36° |
| 2026-04-15 17:50 | -26.08508 | 30.52185 | 31282 ft | 453 kts | 36° |
| 2026-04-15 17:50 | -26.03460 | 30.56442 | 31253 ft | 456 kts | 36° |
| 2026-04-15 17:51 | -25.98390 | 30.60712 | 31241 ft | 456 kts | 36° |
| 2026-04-15 17:51 | -25.93361 | 30.64939 | 31238 ft | 455 kts | 36° |
| 2026-04-15 17:52 | -25.88335 | 30.69157 | 31241 ft | 455 kts | 35° |
| 2026-04-15 17:52 | -25.83271 | 30.73394 | 31241 ft | 454 kts | 35° |
| 2026-04-15 17:53 | -25.78196 | 30.77643 | 31241 ft | 456 kts | 35° |
| 2026-04-15 17:53 | -25.73130 | 30.81883 | 31228 ft | 454 kts | 35° |
| 2026-04-15 17:54 | -25.68055 | 30.86121 | 31211 ft | 454 kts | 35° |
| 2026-04-15 17:54 | -25.63042 | 30.90303 | 31186 ft | 453 kts | 35° |
| 2026-04-15 17:55 | -25.57943 | 30.94549 | 31175 ft | 454 kts | 35° |
| 2026-04-15 17:55 | -25.52923 | 30.98729 | 31158 ft | 454 kts | 36° |
| 2026-04-15 17:56 | -25.47868 | 31.02937 | 31145 ft | 452 kts | 36° |
| 2026-04-15 17:56 | -25.42794 | 31.07153 | 31139 ft | 453 kts | 35° |
| 2026-04-15 17:57 | -25.37993 | 31.11667 | 31137 ft | 454 kts | 43° |
| 2026-04-15 17:57 | -25.33760 | 31.16939 | 31127 ft | 456 kts | 49° |
| 2026-04-15 17:58 | -25.29801 | 31.22464 | 31116 ft | 457 kts | 50° |
| 2026-04-15 17:58 | -25.25913 | 31.28000 | 31096 ft | 457 kts | 50° |
| 2026-04-15 17:59 | -25.22009 | 31.33537 | 31071 ft | 455 kts | 50° |
| 2026-04-15 17:59 | -25.18080 | 31.39075 | 31057 ft | 455 kts | 50° |
| 2026-04-15 18:00 | -25.14156 | 31.44578 | 31050 ft | 454 kts | 50° |
| 2026-04-15 18:00 | -25.10244 | 31.50044 | 31041 ft | 454 kts | 50° |
| 2026-04-15 18:01 | -25.06327 | 31.55505 | 31044 ft | 454 kts | 50° |
| 2026-04-15 18:01 | -25.02399 | 31.60973 | 31033 ft | 454 kts | 50° |
| 2026-04-15 18:02 | -24.98464 | 31.66445 | 31028 ft | 454 kts | 49° |
| 2026-04-15 18:02 | -24.94526 | 31.71915 | 31023 ft | 454 kts | 50° |
| 2026-04-15 18:03 | -24.90597 | 31.77368 | 31034 ft | 454 kts | 49° |
| 2026-04-15 18:03 | -24.86641 | 31.82851 | 31032 ft | 454 kts | 49° |
| 2026-04-15 18:04 | -24.82828 | 31.88130 | 31032 ft | 455 kts | 49° |
| 2026-04-15 18:04 | -24.78916 | 31.93538 | 31024 ft | 456 kts | 49° |
| 2026-04-15 18:05 | -24.74957 | 31.99006 | 31031 ft | 455 kts | 50° |
| 2026-04-15 18:05 | -24.71020 | 32.04501 | 31024 ft | 456 kts | 50° |
| 2026-04-15 18:06 | -24.67131 | 32.10043 | 31018 ft | 458 kts | 51° |
| 2026-04-15 18:06 | -24.63230 | 32.15616 | 31011 ft | 458 kts | 50° |
| 2026-04-15 18:07 | -24.59348 | 32.21148 | 31005 ft | 457 kts | 50° |
| 2026-04-15 18:07 | -24.55450 | 32.26684 | 30999 ft | 457 kts | 50° |
| 2026-04-15 18:08 | -24.51533 | 32.32207 | 30999 ft | 458 kts | 49° |
| 2026-04-15 18:08 | -24.47308 | 32.37499 | 30998 ft | 459 kts | 45° |
| 2026-04-15 18:09 | -24.42941 | 32.42598 | 31002 ft | 457 kts | 45° |
| 2026-04-15 18:09 | -24.38672 | 32.47574 | 31001 ft | 458 kts | 45° |
| 2026-04-15 18:10 | -24.34331 | 32.52683 | 30998 ft | 458 kts | 45° |
| 2026-04-15 18:10 | -24.29996 | 32.57822 | 30997 ft | 458 kts | 45° |
| 2026-04-15 18:11 | -24.25653 | 32.62984 | 30995 ft | 459 kts | 45° |
| 2026-04-15 18:11 | -24.21320 | 32.68138 | 30994 ft | 459 kts | 45° |
| 2026-04-15 18:12 | -24.16953 | 32.73329 | 30995 ft | 460 kts | 45° |
| 2026-04-15 18:12 | -24.12605 | 32.78494 | 30993 ft | 459 kts | 45° |
| 2026-04-15 18:13 | -24.08256 | 32.83653 | 30994 ft | 460 kts | 45° |
| 2026-04-15 18:14 | -24.01711 | 32.91405 | 30994 ft | 459 kts | 45° |
| 2026-04-15 18:14 | -23.97351 | 32.96560 | 30992 ft | 461 kts | 45° |
| 2026-04-15 18:15 | -23.92970 | 33.01737 | 30996 ft | 461 kts | 45° |
| 2026-04-15 18:15 | -23.88608 | 33.06889 | 30990 ft | 461 kts | 45° |
| 2026-04-15 18:16 | -23.84234 | 33.12048 | 30997 ft | 460 kts | 45° |
| 2026-04-15 18:16 | -23.79882 | 33.17176 | 30998 ft | 460 kts | 45° |
| 2026-04-15 18:17 | -23.75508 | 33.22321 | 30999 ft | 462 kts | 45° |
| 2026-04-15 18:17 | -23.71136 | 33.27459 | 30997 ft | 462 kts | 45° |
| 2026-04-15 18:18 | -23.66755 | 33.32603 | 30997 ft | 462 kts | 45° |
| 2026-04-15 18:18 | -23.62456 | 33.37648 | 30997 ft | 461 kts | 45° |
| 2026-04-15 18:19 | -23.58056 | 33.42802 | 30995 ft | 462 kts | 45° |
| 2026-04-15 18:19 | -23.53661 | 33.47946 | 30990 ft | 461 kts | 45° |
| 2026-04-15 18:20 | -23.49301 | 33.53042 | 30989 ft | 461 kts | 45° |
| 2026-04-15 18:20 | -23.44900 | 33.58181 | 30990 ft | 462 kts | 45° |
| 2026-04-15 18:21 | -23.40514 | 33.63298 | 30994 ft | 461 kts | 45° |
| 2026-04-15 18:21 | -23.36092 | 33.68453 | 30999 ft | 462 kts | 45° |
| 2026-04-15 18:22 | -23.31701 | 33.73566 | 31001 ft | 461 kts | 45° |
| 2026-04-15 18:22 | -23.27312 | 33.78669 | 31002 ft | 461 kts | 45° |
| 2026-04-15 18:23 | -23.22936 | 33.83754 | 31007 ft | 462 kts | 45° |
| 2026-04-15 18:23 | -23.18524 | 33.88876 | 31009 ft | 460 kts | 45° |
| 2026-04-15 18:24 | -23.14155 | 33.93941 | 31001 ft | 461 kts | 45° |
| 2026-04-15 18:24 | -23.09751 | 33.99041 | 30995 ft | 461 kts | 45° |
| 2026-04-15 18:25 | -23.05348 | 34.04136 | 30997 ft | 461 kts | 45° |
| 2026-04-15 18:25 | -23.00949 | 34.09220 | 31002 ft | 462 kts | 45° |
| 2026-04-15 18:26 | -22.96523 | 34.14331 | 31004 ft | 462 kts | 45° |
| 2026-04-15 18:26 | -22.92209 | 34.19307 | 31004 ft | 462 kts | 45° |
| 2026-04-15 18:27 | -22.87788 | 34.24400 | 31005 ft | 463 kts | 45° |
| 2026-04-15 18:27 | -22.83336 | 34.29525 | 31006 ft | 464 kts | 45° |
| 2026-04-15 18:28 | -22.78901 | 34.34625 | 31008 ft | 465 kts | 45° |
| 2026-04-15 18:28 | -22.74462 | 34.39726 | 31008 ft | 466 kts | 45° |
| 2026-04-15 18:29 | -22.69996 | 34.44850 | 31011 ft | 467 kts | 45° |
| 2026-04-15 18:29 | -22.65524 | 34.49978 | 31009 ft | 468 kts | 45° |
| 2026-04-15 18:30 | -22.61035 | 34.55121 | 31013 ft | 467 kts | 45° |
| 2026-04-15 18:30 | -22.56555 | 34.60249 | 31012 ft | 467 kts | 45° |
| 2026-04-15 18:31 | -22.52085 | 34.65358 | 31012 ft | 467 kts | 45° |
| 2026-04-15 18:31 | -22.47593 | 34.70488 | 31013 ft | 467 kts | 45° |
| 2026-04-15 18:32 | -22.43100 | 34.75612 | 31012 ft | 468 kts | 45° |
| 2026-04-15 18:32 | -22.38657 | 34.80778 | 31014 ft | 467 kts | 46° |
| 2026-04-15 18:33 | -22.34310 | 34.85977 | 31012 ft | 468 kts | 46° |
| 2026-04-15 18:33 | -22.29912 | 34.91254 | 31013 ft | 469 kts | 46° |
| 2026-04-15 18:34 | -22.25558 | 34.96458 | 31012 ft | 468 kts | 46° |
| 2026-04-15 18:34 | -22.21182 | 35.01671 | 31012 ft | 467 kts | 46° |
| 2026-04-15 18:35 | -22.16791 | 35.06888 | 31014 ft | 468 kts | 46° |
| 2026-04-15 18:35 | -22.12418 | 35.12075 | 31011 ft | 467 kts | 46° |
| 2026-04-15 18:36 | -22.07973 | 35.17340 | 31012 ft | 469 kts | 46° |
| 2026-04-15 18:36 | -22.03845 | 35.22225 | 31012 ft | 469 kts | 46° |
| 2026-04-15 18:37 | -21.99378 | 35.27374 | 31009 ft | 470 kts | 43° |
| 2026-04-15 18:37 | -21.94225 | 35.31685 | 31010 ft | 467 kts | 31° |
| 2026-04-15 18:38 | -21.88512 | 35.35149 | 31008 ft | 467 kts | 27° |
| 2026-04-15 18:38 | -21.82704 | 35.38402 | 31007 ft | 467 kts | 26° |
| 2026-04-15 18:39 | -21.76957 | 35.41635 | 31007 ft | 468 kts | 27° |
| 2026-04-15 18:39 | -21.71158 | 35.44952 | 31004 ft | 468 kts | 27° |
| 2026-04-15 18:40 | -21.65380 | 35.48292 | 31004 ft | 470 kts | 28° |
| 2026-04-15 18:40 | -21.59563 | 35.51666 | 31005 ft | 473 kts | 28° |
| 2026-04-15 18:41 | -21.53812 | 35.55007 | 31003 ft | 469 kts | 28° |
| 2026-04-15 18:41 | -21.47978 | 35.58393 | 31005 ft | 479 kts | 28° |
| 2026-04-15 18:42 | -21.42079 | 35.61815 | 31006 ft | 475 kts | 28° |
| 2026-04-15 18:42 | -21.36261 | 35.65203 | 31009 ft | 475 kts | 28° |
| 2026-04-15 18:43 | -21.30448 | 35.68704 | 31008 ft | 476 kts | 29° |
| 2026-04-15 18:43 | -21.24638 | 35.72248 | 31009 ft | 479 kts | 29° |
| 2026-04-15 18:44 | -21.18796 | 35.75808 | 31008 ft | 479 kts | 29° |
| 2026-04-15 18:44 | -21.13002 | 35.79325 | 31007 ft | 478 kts | 29° |
| 2026-04-15 18:45 | -21.07151 | 35.82864 | 31008 ft | 480 kts | 29° |
| 2026-04-15 18:45 | -21.01305 | 35.86394 | 31008 ft | 481 kts | 29° |
| 2026-04-15 18:46 | -20.95408 | 35.89952 | 31008 ft | 481 kts | 28° |
| 2026-04-15 18:46 | -20.89572 | 35.93467 | 31006 ft | 481 kts | 28° |
| 2026-04-15 18:47 | -20.83652 | 35.97029 | 31008 ft | 483 kts | 28° |
| 2026-04-15 18:47 | -20.77807 | 36.00543 | 31007 ft | 482 kts | 28° |
| 2026-04-15 18:48 | -20.71897 | 36.04092 | 31006 ft | 481 kts | 29° |
| 2026-04-15 18:48 | -20.66029 | 36.07613 | 31008 ft | 481 kts | 29° |
| 2026-04-15 18:49 | -20.60147 | 36.11141 | 31007 ft | 483 kts | 28° |
| 2026-04-15 18:49 | -20.54291 | 36.14649 | 31007 ft | 483 kts | 29° |
| 2026-04-15 18:50 | -20.48416 | 36.18166 | 31007 ft | 484 kts | 28° |
| 2026-04-15 18:50 | -20.42517 | 36.21695 | 31008 ft | 482 kts | 28° |
| 2026-04-15 18:51 | -20.36660 | 36.25193 | 31008 ft | 484 kts | 28° |
| 2026-04-15 18:51 | -20.30731 | 36.28699 | 31006 ft | 483 kts | 28° |
| 2026-04-15 18:52 | -20.24827 | 36.32171 | 31007 ft | 485 kts | 28° |
| 2026-04-15 18:52 | -20.18867 | 36.35670 | 31007 ft | 485 kts | 28° |
| 2026-04-15 18:53 | -20.12982 | 36.39125 | 31006 ft | 485 kts | 28° |
| 2026-04-15 18:53 | -20.07033 | 36.42618 | 31007 ft | 486 kts | 28° |
| 2026-04-15 18:54 | -20.01088 | 36.46106 | 31010 ft | 485 kts | 28° |
| 2026-04-15 18:54 | -19.95128 | 36.49601 | 31008 ft | 486 kts | 28° |
| 2026-04-15 18:55 | -19.89189 | 36.53081 | 31005 ft | 486 kts | 28° |
| 2026-04-15 18:55 | -19.83237 | 36.56565 | 31002 ft | 488 kts | 28° |
| 2026-04-15 18:56 | -19.77280 | 36.60051 | 31002 ft | 485 kts | 28° |
| 2026-04-15 18:56 | -19.71349 | 36.63517 | 31000 ft | 488 kts | 28° |
| 2026-04-15 18:57 | -19.65329 | 36.67032 | 30999 ft | 490 kts | 28° |
| 2026-04-15 18:57 | -19.59374 | 36.70505 | 30994 ft | 490 kts | 28° |
| 2026-04-15 18:58 | -19.53353 | 36.74017 | 30989 ft | 489 kts | 28° |
| 2026-04-15 18:58 | -19.47375 | 36.77529 | 30987 ft | 489 kts | 28° |
| 2026-04-15 18:59 | -19.41437 | 36.81030 | 30988 ft | 488 kts | 28° |
| 2026-04-15 18:59 | -19.35436 | 36.84567 | 30987 ft | 489 kts | 28° |
| 2026-04-15 19:00 | -19.29480 | 36.88072 | 30987 ft | 489 kts | 28° |
| 2026-04-15 19:00 | -19.23498 | 36.91586 | 30988 ft | 489 kts | 28° |
| 2026-04-15 19:01 | -19.17498 | 36.95105 | 30987 ft | 489 kts | 28° |
| 2026-04-15 19:01 | -19.11557 | 36.98587 | 30988 ft | 487 kts | 28° |
| 2026-04-15 19:02 | -19.05579 | 37.02077 | 30988 ft | 489 kts | 28° |
| 2026-04-15 19:02 | -18.99566 | 37.05515 | 30985 ft | 486 kts | 28° |
| 2026-04-15 19:03 | -18.93611 | 37.08939 | 30989 ft | 491 kts | 28° |
| 2026-04-15 19:03 | -18.87585 | 37.12452 | 30986 ft | 489 kts | 28° |
| 2026-04-15 19:04 | -18.81627 | 37.15936 | 30984 ft | 492 kts | 28° |
| 2026-04-15 19:04 | -18.75607 | 37.19453 | 30986 ft | 491 kts | 28° |
| 2026-04-15 19:05 | -18.69599 | 37.22956 | 30984 ft | 492 kts | 28° |
| 2026-04-15 19:05 | -18.63536 | 37.26485 | 30986 ft | 492 kts | 28° |
| 2026-04-15 19:06 | -18.57540 | 37.29972 | 30990 ft | 492 kts | 28° |
| 2026-04-15 19:06 | -18.51504 | 37.33484 | 30987 ft | 494 kts | 28° |
| 2026-04-15 19:07 | -18.45450 | 37.37057 | 30987 ft | 495 kts | 29° |
| 2026-04-15 19:07 | -18.39448 | 37.40621 | 30987 ft | 494 kts | 29° |
| 2026-04-15 19:08 | -18.33405 | 37.44207 | 30986 ft | 495 kts | 28° |
| 2026-04-15 19:08 | -18.27457 | 37.47730 | 30988 ft | 495 kts | 28° |
| 2026-04-15 19:09 | -18.21407 | 37.51305 | 30989 ft | 497 kts | 28° |
| 2026-04-15 19:09 | -18.15404 | 37.54847 | 30987 ft | 494 kts | 28° |
| 2026-04-15 19:10 | -18.09335 | 37.58424 | 30987 ft | 496 kts | 28° |
| 2026-04-15 19:10 | -18.03333 | 37.61961 | 30988 ft | 494 kts | 28° |
| 2026-04-15 19:11 | -17.97292 | 37.65516 | 30987 ft | 497 kts | 28° |
| 2026-04-15 19:11 | -17.91222 | 37.69086 | 30986 ft | 495 kts | 28° |
| 2026-04-15 19:12 | -17.85174 | 37.72638 | 30990 ft | 496 kts | 28° |
| 2026-04-15 19:12 | -17.79095 | 37.76138 | 30987 ft | 497 kts | 27° |
| 2026-04-15 19:13 | -17.72935 | 37.79634 | 30987 ft | 497 kts | 27° |
| 2026-04-15 19:13 | -17.66803 | 37.83109 | 30988 ft | 497 kts | 27° |
| 2026-04-15 19:14 | -17.60739 | 37.86550 | 30989 ft | 495 kts | 27° |
| 2026-04-15 19:14 | -17.54575 | 37.90051 | 30987 ft | 496 kts | 27° |
| 2026-04-15 19:15 | -17.48472 | 37.93519 | 30986 ft | 496 kts | 27° |
| 2026-04-15 19:15 | -17.42363 | 37.96988 | 30988 ft | 497 kts | 27° |
| 2026-04-15 19:16 | -17.36213 | 38.00477 | 30988 ft | 498 kts | 27° |
| 2026-04-15 19:16 | -17.30086 | 38.03952 | 30989 ft | 498 kts | 27° |
| 2026-04-15 19:17 | -17.23982 | 38.07410 | 30988 ft | 499 kts | 27° |
| 2026-04-15 19:17 | -17.17838 | 38.10887 | 30989 ft | 498 kts | 27° |
| 2026-04-15 19:18 | -17.11661 | 38.14381 | 30986 ft | 499 kts | 27° |
| 2026-04-15 19:18 | -17.02434 | 38.19597 | 30987 ft | 499 kts | 27° |
| 2026-04-15 19:19 | -16.96298 | 38.23062 | 30988 ft | 500 kts | 27° |
| 2026-04-15 19:19 | -16.90110 | 38.26553 | 30989 ft | 501 kts | 27° |
| 2026-04-15 19:20 | -16.83957 | 38.30021 | 30990 ft | 502 kts | 27° |
| 2026-04-15 19:20 | -16.77806 | 38.33487 | 30989 ft | 500 kts | 27° |
| 2026-04-15 19:21 | -16.71626 | 38.36966 | 30992 ft | 500 kts | 27° |
| 2026-04-15 19:21 | -16.65469 | 38.40430 | 30998 ft | 502 kts | 27° |
| 2026-04-15 19:22 | -16.59326 | 38.43882 | 31002 ft | 502 kts | 27° |
| 2026-04-15 19:22 | -16.53156 | 38.47347 | 31003 ft | 502 kts | 27° |
| 2026-04-15 19:23 | -16.46940 | 38.50840 | 31004 ft | 503 kts | 27° |
| 2026-04-15 19:23 | -16.40935 | 38.54292 | 31004 ft | 503 kts | 28° |
| 2026-04-15 19:24 | -16.34810 | 38.57860 | 31009 ft | 503 kts | 28° |
| 2026-04-15 19:24 | -16.28681 | 38.61433 | 31013 ft | 503 kts | 28° |
| 2026-04-15 19:25 | -16.22515 | 38.65016 | 31019 ft | 505 kts | 28° |
| 2026-04-15 19:25 | -16.16382 | 38.68571 | 31022 ft | 505 kts | 28° |
| 2026-04-15 19:26 | -16.10238 | 38.72125 | 31021 ft | 504 kts | 28° |
| 2026-04-15 19:26 | -16.04054 | 38.75699 | 31023 ft | 505 kts | 27° |
| 2026-04-15 19:27 | -15.97869 | 38.79269 | 31024 ft | 505 kts | 28° |
| 2026-04-15 19:27 | -15.91710 | 38.82823 | 31018 ft | 506 kts | 28° |
| 2026-04-15 19:28 | -15.85520 | 38.86393 | 31015 ft | 503 kts | 28° |
| 2026-04-15 19:28 | -15.79374 | 38.89934 | 31015 ft | 504 kts | 28° |
| 2026-04-15 19:29 | -15.73293 | 38.93435 | 31018 ft | 505 kts | 28° |
| 2026-04-15 19:29 | -15.67133 | 38.96978 | 31019 ft | 505 kts | 28° |
| 2026-04-15 19:30 | -15.60971 | 39.00498 | 31019 ft | 504 kts | 27° |
| 2026-04-15 19:30 | -15.54773 | 39.04005 | 31021 ft | 505 kts | 27° |
| 2026-04-15 19:31 | -15.48535 | 39.07528 | 31023 ft | 504 kts | 27° |
| 2026-04-15 19:31 | -15.42365 | 39.11015 | 31027 ft | 505 kts | 28° |
| 2026-04-15 19:32 | -15.36177 | 39.14513 | 31028 ft | 505 kts | 27° |
| 2026-04-15 19:32 | -15.29974 | 39.18019 | 31033 ft | 505 kts | 28° |
| 2026-04-15 19:33 | -15.23738 | 39.21541 | 31042 ft | 505 kts | 27° |
| 2026-04-15 19:33 | -15.17540 | 39.25039 | 31046 ft | 505 kts | 28° |
| 2026-04-15 19:34 | -15.11550 | 39.28852 | 31049 ft | 504 kts | 39° |
| 2026-04-15 19:34 | -15.09027 | 39.31388 | 31051 ft | 505 kts | 51° |
| 2026-04-15 19:34 | -15.07071 | 39.34279 | 31053 ft | 505 kts | 61° |
| 2026-04-15 19:35 | -15.03879 | 39.40723 | 31041 ft | 502 kts | 66° |
| 2026-04-15 19:35 | -15.00990 | 39.47318 | 31033 ft | 502 kts | 68° |
| 2026-04-15 19:36 | -14.98131 | 39.53985 | 31026 ft | 504 kts | 68° |
| 2026-04-15 19:36 | -14.95256 | 39.60627 | 31019 ft | 504 kts | 68° |
| 2026-04-15 19:37 | -14.92373 | 39.67205 | 31014 ft | 504 kts | 67° |
| 2026-04-15 19:37 | -14.89456 | 39.73810 | 31015 ft | 504 kts | 67° |
| 2026-04-15 19:38 | -14.86518 | 39.80439 | 31013 ft | 504 kts | 67° |
| 2026-04-15 19:38 | -14.83596 | 39.87018 | 31009 ft | 504 kts | 67° |
| 2026-04-15 19:39 | -14.80670 | 39.93602 | 31009 ft | 502 kts | 67° |
| 2026-04-15 19:39 | -14.77735 | 40.00203 | 31005 ft | 503 kts | 67° |
| 2026-04-15 19:40 | -14.74809 | 40.06777 | 31006 ft | 502 kts | 67° |
| 2026-04-15 19:40 | -14.71870 | 40.13399 | 31005 ft | 504 kts | 67° |
| 2026-04-15 19:41 | -14.68952 | 40.20036 | 31004 ft | 503 kts | 68° |
| 2026-04-15 19:41 | -14.66065 | 40.26614 | 31002 ft | 503 kts | 67° |
| 2026-04-15 19:42 | -14.63147 | 40.33255 | 30996 ft | 503 kts | 67° |
| 2026-04-15 19:42 | -14.60257 | 40.39818 | 30991 ft | 503 kts | 67° |
| 2026-04-15 19:43 | -14.57350 | 40.46409 | 30982 ft | 502 kts | 67° |
| 2026-04-15 19:43 | -14.54446 | 40.52986 | 30986 ft | 502 kts | 68° |
| 2026-04-15 19:44 | -14.51532 | 40.59577 | 30979 ft | 502 kts | 67° |
| 2026-04-15 19:44 | -14.48497 | 40.66117 | 30974 ft | 503 kts | 62° |
| 2026-04-15 19:45 | -14.46715 | 40.68926 | 30972 ft | 505 kts | 51° |
| 2026-04-15 19:45 | -14.44205 | 40.71498 | 30976 ft | 506 kts | 38° |
| 2026-04-15 19:45 | -14.41423 | 40.73374 | 30972 ft | 506 kts | 27° |
| 2026-04-15 19:45 | -14.38245 | 40.74957 | 30965 ft | 504 kts | 22° |
| 2026-04-15 19:46 | -14.31742 | 40.77793 | 30962 ft | 503 kts | 20° |
| 2026-04-15 19:46 | -14.25208 | 40.80495 | 30959 ft | 503 kts | 20° |
| 2026-04-15 19:47 | -14.18641 | 40.83214 | 30951 ft | 503 kts | 20° |
| 2026-04-15 19:47 | -14.12112 | 40.85949 | 30956 ft | 503 kts | 20° |
| 2026-04-15 19:48 | -14.05600 | 40.88697 | 30951 ft | 504 kts | 20° |
| 2026-04-15 19:48 | -13.99031 | 40.91479 | 30948 ft | 503 kts | 21° |
| 2026-04-15 19:49 | -13.92519 | 40.94237 | 30946 ft | 504 kts | 21° |
| 2026-04-15 19:49 | -13.86000 | 40.96997 | 30947 ft | 503 kts | 20° |
| 2026-04-15 19:50 | -13.79439 | 40.99777 | 30946 ft | 503 kts | 21° |
| 2026-04-15 19:50 | -13.72939 | 41.02531 | 30947 ft | 503 kts | 21° |
| 2026-04-15 19:51 | -13.66449 | 41.05280 | 30946 ft | 503 kts | 21° |
| 2026-04-15 19:51 | -13.59915 | 41.08045 | 30946 ft | 504 kts | 21° |
| 2026-04-15 19:52 | -13.53377 | 41.10810 | 30948 ft | 503 kts | 21° |
| 2026-04-15 19:52 | -13.46915 | 41.13541 | 30946 ft | 503 kts | 21° |
| 2026-04-15 19:53 | -13.40380 | 41.16301 | 30946 ft | 502 kts | 21° |
| 2026-04-15 19:53 | -13.33888 | 41.19041 | 30947 ft | 504 kts | 21° |
| 2026-04-15 19:54 | -13.27318 | 41.21813 | 30946 ft | 503 kts | 21° |
| 2026-04-15 19:54 | -13.20817 | 41.24555 | 30946 ft | 503 kts | 21° |
| 2026-04-15 19:55 | -13.14275 | 41.27312 | 30946 ft | 503 kts | 21° |
| 2026-04-15 19:55 | -13.07789 | 41.30043 | 30946 ft | 503 kts | 21° |
| 2026-04-15 19:56 | -13.01261 | 41.32790 | 30946 ft | 502 kts | 21° |
| 2026-04-15 19:56 | -12.94703 | 41.35548 | 30945 ft | 503 kts | 21° |
| 2026-04-15 19:57 | -12.88228 | 41.38270 | 30946 ft | 503 kts | 21° |
| 2026-04-15 19:57 | -12.83831 | 41.40118 | 30946 ft | 503 kts | 21° |
| 2026-04-15 19:59 | -12.61231 | 41.49604 | 30939 ft | 503 kts | 21° |
| 2026-04-15 19:59 | -12.54703 | 41.52339 | 30938 ft | 504 kts | 20° |
| 2026-04-15 20:00 | -12.48150 | 41.55082 | 30936 ft | 503 kts | 20° |
| 2026-04-15 20:00 | -12.41646 | 41.57805 | 30929 ft | 504 kts | 20° |
| 2026-04-15 20:01 | -12.35122 | 41.60537 | 30929 ft | 503 kts | 21° |
| 2026-04-15 20:01 | -12.28608 | 41.63263 | 30929 ft | 503 kts | 21° |
| 2026-04-15 20:02 | -12.22057 | 41.66002 | 30928 ft | 503 kts | 20° |
| 2026-04-15 20:02 | -12.15512 | 41.68738 | 30926 ft | 503 kts | 20° |
| 2026-04-15 20:03 | -12.09020 | 41.71449 | 30925 ft | 504 kts | 20° |
| 2026-04-15 20:03 | -12.02519 | 41.74163 | 30925 ft | 504 kts | 20° |
| 2026-04-15 20:04 | -11.95947 | 41.76904 | 30927 ft | 504 kts | 20° |
| 2026-04-15 20:04 | -11.89783 | 41.80329 | 30924 ft | 506 kts | 38° |
| 2026-04-15 20:05 | -11.87235 | 41.82826 | 30927 ft | 507 kts | 50° |
| 2026-04-15 20:05 | -11.85167 | 41.85788 | 30928 ft | 507 kts | 60° |
| 2026-04-15 20:05 | -11.82670 | 41.91234 | 30927 ft | 504 kts | 72° |
| 2026-04-15 20:06 | -11.79277 | 42.05348 | 30925 ft | 502 kts | 81° |
| 2026-04-15 20:07 | -11.79046 | 42.06481 | 30925 ft | 502 kts | 80° |
| 2026-04-15 20:07 | -11.76208 | 42.19934 | 30925 ft | 503 kts | 79° |
| 2026-04-15 20:08 | -11.74653 | 42.26923 | 30926 ft | 503 kts | 79° |
| 2026-04-15 20:08 | -11.73108 | 42.33737 | 30924 ft | 503 kts | 79° |
| 2026-04-15 20:09 | -11.71521 | 42.40686 | 30926 ft | 503 kts | 79° |
| 2026-04-15 20:09 | -11.69920 | 42.47677 | 30925 ft | 503 kts | 79° |
| 2026-04-15 20:10 | -11.68327 | 42.54622 | 30925 ft | 503 kts | 79° |
| 2026-04-15 20:10 | -11.66726 | 42.61598 | 30925 ft | 505 kts | 79° |
| 2026-04-15 20:11 | -11.65145 | 42.68484 | 30926 ft | 504 kts | 78° |
| 2026-04-15 20:11 | -11.63538 | 42.75476 | 30924 ft | 503 kts | 78° |
| 2026-04-15 20:12 | -11.61939 | 42.82422 | 30924 ft | 504 kts | 78° |
| 2026-04-15 20:12 | -11.60323 | 42.89437 | 30926 ft | 504 kts | 79° |
| 2026-04-15 20:13 | -11.58748 | 42.96265 | 30930 ft | 504 kts | 78° |
| 2026-04-15 20:13 | -11.57142 | 43.03220 | 30937 ft | 504 kts | 78° |
| 2026-04-15 20:14 | -11.55527 | 43.10207 | 30942 ft | 504 kts | 78° |
| 2026-04-15 20:14 | -11.53913 | 43.17180 | 30944 ft | 504 kts | 79° |
| 2026-04-15 20:15 | -11.52927 | 43.24224 | 30945 ft | 500 kts | 94° |
| 2026-04-15 20:15 | -11.53328 | 43.27729 | 30951 ft | 495 kts | 106° |
| 2026-04-15 20:15 | -11.54371 | 43.31089 | 30950 ft | 489 kts | 116° |
| 2026-04-15 20:16 | -11.57483 | 43.37176 | 30947 ft | 484 kts | 126° |
| 2026-04-15 20:16 | -11.59927 | 43.41019 | 30943 ft | 481 kts | 128° |
| 2026-04-15 20:17 | -11.68460 | 43.53621 | 30929 ft | 482 kts | 129° |
| 2026-04-15 20:18 | -11.72196 | 43.59232 | 30928 ft | 482 kts | 128° |
| 2026-04-15 20:18 | -11.75958 | 43.64943 | 30925 ft | 482 kts | 128° |
| 2026-04-15 20:19 | -11.79704 | 43.70661 | 30926 ft | 482 kts | 128° |
| 2026-04-15 20:19 | -11.83450 | 43.76394 | 30925 ft | 482 kts | 128° |
| 2026-04-15 20:20 | -11.87188 | 43.82120 | 30925 ft | 483 kts | 128° |
| 2026-04-15 20:20 | -11.90924 | 43.87845 | 30805 ft | 484 kts | 128° |
| 2026-04-15 20:21 | -11.92799 | 43.90719 | 30547 ft | 483 kts | 128° |
| 2026-04-15 20:21 | -11.94666 | 43.93586 | 30291 ft | 480 kts | 128° |
| 2026-04-15 20:21 | -11.96532 | 43.96450 | 30033 ft | 478 kts | 128° |
| 2026-04-15 20:21 | -11.98365 | 43.99264 | 29780 ft | 479 kts | 128° |
| 2026-04-15 20:22 | -12.00217 | 44.02106 | 29523 ft | 479 kts | 128° |
| 2026-04-15 20:22 | -12.02077 | 44.04961 | 29266 ft | 479 kts | 128° |
| 2026-04-15 20:22 | -12.03943 | 44.07825 | 29008 ft | 479 kts | 128° |
| 2026-04-15 20:22 | -12.05781 | 44.10649 | 28753 ft | 480 kts | 128° |
| 2026-04-15 20:23 | -12.07630 | 44.13489 | 28509 ft | 481 kts | 128° |
| 2026-04-15 20:23 | -12.09513 | 44.16383 | 28261 ft | 481 kts | 128° |
| 2026-04-15 20:23 | -12.11380 | 44.19251 | 28016 ft | 482 kts | 128° |
| 2026-04-15 20:23 | -12.13234 | 44.22102 | 27774 ft | 483 kts | 128° |
| 2026-04-15 20:24 | -12.15113 | 44.24991 | 27528 ft | 484 kts | 127° |
| 2026-04-15 20:24 | -12.18854 | 44.30750 | 27040 ft | 484 kts | 127° |
| 2026-04-15 20:24 | -12.20722 | 44.33625 | 26797 ft | 486 kts | 127° |
| 2026-04-15 20:25 | -12.22615 | 44.36542 | 26552 ft | 487 kts | 127° |
| 2026-04-15 20:25 | -12.24499 | 44.39444 | 26264 ft | 487 kts | 127° |
| 2026-04-15 20:25 | -12.26374 | 44.42334 | 25392 ft | 490 kts | 126° |
| 2026-04-15 20:25 | -12.28280 | 44.45269 | 24328 ft | 496 kts | 125° |
| 2026-04-15 20:26 | -12.30190 | 44.48211 | 23365 ft | 497 kts | 124° |
| 2026-04-15 20:26 | -12.32030 | 44.51048 | 22653 ft | 494 kts | 124° |
| 2026-04-15 20:26 | -12.33915 | 44.53957 | 21870 ft | 490 kts | 124° |
| 2026-04-15 20:26 | -12.35773 | 44.56829 | 21064 ft | 473 kts | 123° |
| 2026-04-15 20:27 | -12.37561 | 44.59594 | 20291 ft | 456 kts | 123° |
| 2026-04-15 20:27 | -12.39311 | 44.62300 | 19568 ft | 448 kts | 123° |
| 2026-04-15 20:27 | -12.41034 | 44.64966 | 18747 ft | 450 kts | 123° |
| 2026-04-15 20:27 | -12.42751 | 44.67621 | 17957 ft | 448 kts | 122° |
| 2026-04-15 20:28 | -12.44441 | 44.70237 | 17186 ft | 431 kts | 122° |
| 2026-04-15 20:28 | -12.46094 | 44.72798 | 16478 ft | 425 kts | 122° |
| 2026-04-15 20:28 | -12.47716 | 44.75311 | 15651 ft | 422 kts | 122° |
| 2026-04-15 20:28 | -12.49309 | 44.77777 | 14953 ft | 406 kts | 122° |
| 2026-04-15 20:29 | -12.50844 | 44.80154 | 14248 ft | 391 kts | 122° |
| 2026-04-15 20:29 | -12.52330 | 44.82453 | 13556 ft | 378 kts | 122° |
| 2026-04-15 20:29 | -12.53754 | 44.84660 | 12885 ft | 365 kts | 122° |
| 2026-04-15 20:29 | -12.55134 | 44.86801 | 12226 ft | 353 kts | 122° |
| 2026-04-15 20:30 | -12.56470 | 44.88875 | 11646 ft | 340 kts | 122° |
| 2026-04-15 20:30 | -12.57746 | 44.90855 | 11253 ft | 324 kts | 122° |
| 2026-04-15 20:30 | -12.58964 | 44.92733 | 11035 ft | 305 kts | 123° |
| 2026-04-15 20:30 | -12.60100 | 44.94531 | 10927 ft | 297 kts | 116° |
| 2026-04-15 20:31 | -12.61000 | 44.96420 | 10749 ft | 292 kts | 112° |
| 2026-04-15 20:31 | -12.61756 | 44.98208 | 10617 ft | 288 kts | 111° |
| 2026-04-15 20:31 | -12.62537 | 45.00109 | 10477 ft | 290 kts | 111° |
| 2026-04-15 20:31 | -12.63321 | 45.02042 | 10329 ft | 289 kts | 111° |
| 2026-04-15 20:32 | -12.64087 | 45.03938 | 10186 ft | 288 kts | 111° |
| 2026-04-15 20:32 | -12.64855 | 45.05848 | 9983 ft | 288 kts | 111° |
| 2026-04-15 20:32 | -12.65565 | 45.07807 | 9612 ft | 287 kts | 103° |
| 2026-04-15 20:32 | -12.65852 | 45.09825 | 9271 ft | 283 kts | 94° |
| 2026-04-15 20:33 | -12.65945 | 45.11836 | 8948 ft | 280 kts | 91° |
| 2026-04-15 20:33 | -12.65999 | 45.13831 | 8642 ft | 278 kts | 91° |
| 2026-04-15 20:33 | -12.66044 | 45.15830 | 8334 ft | 277 kts | 91° |
| 2026-04-15 20:33 | -12.66088 | 45.17800 | 8034 ft | 276 kts | 91° |
| 2026-04-15 20:34 | -12.66131 | 45.19711 | 7737 ft | 275 kts | 91° |
| 2026-04-15 20:34 | -12.66176 | 45.21681 | 7431 ft | 273 kts | 91° |
| 2026-04-15 20:34 | -12.66213 | 45.23611 | 7131 ft | 274 kts | 90° |
| 2026-04-15 20:34 | -12.66157 | 45.25574 | 6832 ft | 271 kts | 87° |
| 2026-04-15 20:35 | -12.66040 | 45.27517 | 6548 ft | 271 kts | 86° |
| 2026-04-15 20:35 | -12.65912 | 45.29434 | 6271 ft | 269 kts | 86° |
| 2026-04-15 20:35 | -12.65793 | 45.31354 | 6000 ft | 268 kts | 90° |
| 2026-04-15 20:35 | -12.66156 | 45.33209 | 5923 ft | 267 kts | 115° |
| 2026-04-15 20:36 | -12.67298 | 45.34717 | 5735 ft | 268 kts | 140° |
| 2026-04-15 20:36 | -12.68863 | 45.35734 | 5514 ft | 263 kts | 149° |
| 2026-04-15 20:36 | -12.70490 | 45.36603 | 5196 ft | 261 kts | 150° |
| 2026-04-15 20:36 | -12.72102 | 45.37443 | 5094 ft | 250 kts | 151° |
| 2026-04-15 20:37 | -12.73569 | 45.38204 | 4971 ft | 242 kts | 151° |
| 2026-04-15 20:37 | -12.75091 | 45.38996 | 4688 ft | 240 kts | 151° |
| 2026-04-15 20:37 | -12.76582 | 45.39777 | 4395 ft | 240 kts | 151° |
| 2026-04-15 20:37 | -12.78067 | 45.40554 | 4102 ft | 239 kts | 151° |
| 2026-04-15 20:38 | -12.79577 | 45.41349 | 3815 ft | 239 kts | 151° |
| 2026-04-15 20:38 | -12.81047 | 45.42127 | 3531 ft | 238 kts | 151° |
| 2026-04-15 20:38 | -12.82537 | 45.42923 | 3261 ft | 237 kts | 151° |
| 2026-04-15 20:38 | -12.84016 | 45.43718 | 2994 ft | 236 kts | 151° |
| 2026-04-15 20:39 | -12.85465 | 45.44499 | 2961 ft | 234 kts | 151° |
| 2026-04-15 20:39 | -12.86928 | 45.45289 | 2954 ft | 237 kts | 150° |
| 2026-04-15 20:39 | -12.88395 | 45.46080 | 2951 ft | 231 kts | 151° |
| 2026-04-15 20:39 | -12.89799 | 45.46839 | 2964 ft | 223 kts | 151° |
| 2026-04-15 20:40 | -12.91142 | 45.47564 | 2950 ft | 210 kts | 151° |
| 2026-04-15 20:40 | -12.92400 | 45.48239 | 2951 ft | 196 kts | 150° |
| 2026-04-15 20:40 | -12.93679 | 45.48740 | 2951 ft | 197 kts | 174° |
| 2026-04-15 20:40 | -12.95028 | 45.48470 | 2953 ft | 199 kts | 212° |
| 2026-04-15 20:41 | -12.95943 | 45.47437 | 2954 ft | 199 kts | 249° |
| 2026-04-15 20:41 | -12.96095 | 45.46022 | 2958 ft | 197 kts | 279° |
| 2026-04-15 20:41 | -12.95871 | 45.44640 | 2952 ft | 196 kts | 281° |
| 2026-04-15 20:41 | -12.95645 | 45.43277 | 2950 ft | 191 kts | 281° |
| 2026-04-15 20:42 | -12.95429 | 45.41949 | 2953 ft | 185 kts | 282° |
| 2026-04-15 20:42 | -12.95017 | 45.40690 | 2954 ft | 180 kts | 297° |
| 2026-04-15 20:42 | -12.94439 | 45.39601 | 2953 ft | 173 kts | 303° |
| 2026-04-15 20:42 | -12.93750 | 45.38546 | 2955 ft | 174 kts | 308° |
| 2026-04-15 20:43 | -12.93001 | 45.37595 | 2970 ft | 170 kts | 313° |
| 2026-04-15 20:43 | -12.92192 | 45.36720 | 2952 ft | 163 kts | 317° |
| 2026-04-15 20:43 | -12.91372 | 45.35932 | 2962 ft | 161 kts | 320° |
| 2026-04-15 20:43 | -12.90502 | 45.35166 | 2878 ft | 165 kts | 322° |
| 2026-04-15 20:44 | -12.89585 | 45.34409 | 2605 ft | 166 kts | 323° |
| 2026-04-15 20:44 | -12.88672 | 45.33667 | 2539 ft | 167 kts | 321° |
| 2026-04-15 20:44 | -12.87853 | 45.32897 | 2359 ft | 159 kts | 315° |
| 2026-04-15 20:44 | -12.87111 | 45.32081 | 2006 ft | 154 kts | 315° |
| 2026-04-15 20:45 | -12.86341 | 45.31330 | 1576 ft | 151 kts | 321° |
| 2026-04-15 20:45 | -12.85487 | 45.30711 | 1134 ft | 150 kts | 329° |
| 2026-04-15 20:45 | -12.84567 | 45.30219 | 778 ft | 146 kts | 334° |
| 2026-04-15 20:45 | -12.83649 | 45.29771 | 463 ft | 150 kts | 332° |
| 2026-04-15 20:46 | -12.82796 | 45.29305 | 332 ft | 139 kts | 329° |
| 2026-04-15 20:46 | -12.81951 | 45.28816 | 125 ft | 140 kts | 330° |
| 2026-04-15 20:46 | -12.81120 | 45.28323 | 33 ft | 126 kts | 328° |
| 2026-04-15 20:46 | -12.80551 | 45.27983 | 32 ft | 62 kts | 331° |
| 2026-04-15 20:47 | -12.80296 | 45.27839 | 31 ft | 27 kts | 326° |
| 2026-04-15 20:47 | -12.80195 | 45.27752 | 32 ft | 15 kts | 25° |
| 2026-04-15 20:47 | -12.80253 | 45.27814 | 31 ft | 18 kts | 154° |
| 2026-04-15 20:47 | -12.80368 | 45.27880 | 32 ft | 19 kts | 150° |
| 2026-04-15 20:48 | -12.80455 | 45.27956 | 33 ft | 11 kts | 59° |
| 2026-04-15 20:48 | -12.80423 | 45.28013 | 35 ft | 8 kts | 68° |
| 2026-04-15 20:48 | -12.80399 | 45.28061 | 36 ft | 6 kts | 59° |
| 2026-04-15 20:48 | -12.80373 | 45.28105 | 38 ft | 6 kts | 56° |
| 2026-04-15 20:49 | -12.80346 | 45.28134 | 39 ft | 3 kts | 49° |
| 2026-04-15 20:49 | -12.80336 | 45.28149 | 39 ft | 1 kts | 59° |
| 2026-04-15 20:49 | -12.80329 | 45.28161 | 39 ft | 1 kts | 59° |
| 2026-04-15 20:49 | -12.80321 | 45.28176 | 40 ft | 2 kts | 60° |
| 2026-04-15 20:50 | -12.80317 | 45.28183 | 40 ft | 1 kts | 61° |
| 2026-04-15 20:50 | -12.80312 | 45.28192 | 40 ft | 0 kts | 61° |
| 2026-04-15 20:50 | -12.80311 | 45.28194 | 40 ft | 0 kts | 61° |